Time;durP1;ratioP1;P1;durP2;ratioP2;P2;SDS_P1;SDS_P2;PMS_P1;PMS_P2;Temp;Humidity;BMP_temperature;BMP_pressure;BME280_temperature;BME280_humidity;BME280_pressure;Samples;Min_cycle;Max_cycle;Signal;HPM_P1;HPM_P2
2023/06/20 00:00:07;;;;;;;21.80;20.90;;;23.30;99.90;;;;;;4953857;28;20707;-84
2023/06/20 00:02:38;;;;;;;21.10;20.20;;;23.20;99.90;;;;;;4949982;28;20558;-83
2023/06/20 00:05:06;;;;;;;21.53;20.37;;;23.10;99.90;;;;;;4952844;28;20495;-83
2023/06/20 00:07:35;;;;;;;22.00;20.90;;;23.10;1.00;;;;;;4952030;28;20538;-83
2023/06/20 00:10:08;;;;;;;22.50;21.40;;;23.20;1.00;;;;;;4951491;28;20458;-84
2023/06/20 00:12:36;;;;;;;20.90;20.00;;;23.20;1.00;;;;;;4954439;28;20519;-83
2023/06/20 00:15:06;;;;;;;22.37;21.27;;;23.20;99.90;;;;;;4953679;28;20916;-81
2023/06/20 00:17:34;;;;;;;22.37;21.27;;;23.30;99.90;;;;;;4954106;28;20502;-82
2023/06/20 00:20:05;;;;;;;21.93;20.93;;;23.30;99.90;;;;;;4953986;28;20459;-82
2023/06/20 00:22:34;;;;;;;22.30;21.30;;;23.30;99.90;;;;;;4953037;28;20488;-82
2023/06/20 00:25:03;;;;;;;21.77;20.83;;;23.30;99.90;;;;;;4949367;28;20539;-83
2023/06/20 00:27:32;;;;;;;21.70;20.60;;;23.40;99.90;;;;;;4955156;28;20456;-80
2023/06/20 00:30:00;;;;;;;21.90;20.90;;;23.30;99.90;;;;;;4953479;28;20469;-84
2023/06/20 00:32:28;;;;;;;22.10;21.00;;;23.30;1.00;;;;;;4951664;28;21043;-82
2023/06/20 00:34:58;;;;;;;23.13;21.63;;;23.20;14.60;;;;;;4950377;28;20534;-82
2023/06/20 00:37:28;;;;;;;22.60;21.60;;;22.90;99.90;;;;;;4951757;28;20482;-80
2023/06/20 00:39:56;;;;;;;22.90;21.70;;;22.90;99.90;;;;;;4955881;28;20470;-83
2023/06/20 00:42:24;;;;;;;23.30;22.10;;;22.80;1.00;;;;;;4957256;28;20478;-82
2023/06/20 00:44:53;;;;;;;23.03;21.87;;;22.60;99.90;;;;;;4952526;28;20460;-84
2023/06/20 00:47:21;;;;;;;23.53;22.23;;;22.60;99.90;;;;;;4955568;28;20464;-81
2023/06/20 00:49:51;;;;;;;23.40;22.30;;;22.60;99.90;;;;;;4957889;28;20530;-83
2023/06/20 00:52:21;;;;;;;23.00;21.87;;;22.40;99.90;;;;;;4957159;28;21009;-82
2023/06/20 00:54:51;;;;;;;23.43;22.30;;;22.40;1.00;;;;;;4957334;28;20462;-83
2023/06/20 00:57:20;;;;;;;23.73;22.43;;;22.20;1.00;;;;;;4955614;28;20543;-82
2023/06/20 00:59:50;;;;;;;23.27;21.90;;;22.10;1.00;;;;;;4954216;28;20467;-82
2023/06/20 01:02:20;;;;;;;22.23;21.03;;;22.00;1.00;;;;;;4955038;28;20468;-83
2023/06/20 01:04:49;;;;;;;22.50;21.40;;;22.00;1.00;;;;;;4953895;28;20551;-83
2023/06/20 01:07:24;;;;;;;22.27;21.27;;;22.00;99.90;;;;;;4953765;28;20526;-84
2023/06/20 01:10:01;;;;;;;22.33;21.13;;;22.00;1.00;;;;;;4958380;28;20555;-83
2023/06/20 01:12:36;;;;;;;21.77;20.77;;;21.90;99.90;;;;;;4956568;28;20590;-84
2023/06/20 01:15:12;;;;;;;22.17;21.07;;;22.00;32.70;;;;;;4955578;28;20961;-81
2023/06/20 01:17:46;;;;;;;20.87;19.93;;;22.00;99.90;;;;;;4956452;28;20455;-82
2023/06/20 01:20:17;;;;;;;20.73;19.60;;;22.00;99.90;;;;;;4956119;28;20467;-83
2023/06/20 01:22:57;;;;;;;20.30;19.30;;;22.00;1.00;;;;;;4956146;28;20491;-84
2023/06/20 01:25:33;;;;;;;20.73;19.73;;;21.90;16.10;;;;;;4955500;28;20455;-83
2023/06/20 01:28:07;;;;;;;20.43;19.57;;;21.90;99.90;;;;;;4955298;28;22059;-83
2023/06/20 01:30:43;;;;;;;20.53;19.60;;;21.90;99.90;;;;;;4954622;28;20467;-84
2023/06/20 01:33:12;;;;;;;21.10;20.20;;;21.80;99.90;;;;;;4951822;28;21016;-84
2023/06/20 01:35:42;;;;;;;20.50;19.60;;;21.80;1.00;;;;;;4953814;28;21083;-84
2023/06/20 01:38:14;;;;;;;21.40;20.30;;;21.80;1.00;;;;;;4950812;28;20459;-84
2023/06/20 01:40:46;;;;;;;21.23;20.07;;;21.70;99.90;;;;;;4955188;28;20455;-83
2023/06/20 01:43:16;;;;;;;20.57;19.70;;;21.60;1.00;;;;;;4948853;28;21039;-82
2023/06/20 01:45:47;;;;;;;20.40;19.50;;;21.60;99.90;;;;;;4957397;28;20456;-82
2023/06/20 01:48:18;;;;;;;21.07;19.87;;;21.60;99.90;;;;;;4956930;28;20545;-83
2023/06/20 01:50:48;;;;;;;20.83;19.87;;;21.50;1.00;;;;;;4956598;28;20451;-83
2023/06/20 01:53:20;;;;;;;19.90;18.97;;;21.60;99.90;;;;;;4954996;28;20480;-80
2023/06/20 01:55:49;;;;;;;19.93;19.03;;;21.50;1.00;;;;;;4955608;28;21018;-83
2023/06/20 01:58:18;;;;;;;20.40;19.37;;;21.50;99.90;;;;;;4953367;28;21023;-81
2023/06/20 02:00:47;;;;;;;19.83;19.03;;;21.60;99.90;;;;;;4954294;28;20977;-81
2023/06/20 02:03:17;;;;;;;19.73;18.93;;;21.60;1.00;;;;;;4955812;28;20482;-82
2023/06/20 02:05:48;;;;;;;19.47;18.67;;;21.50;99.90;;;;;;4954309;28;20468;-80
2023/06/20 02:08:20;;;;;;;20.57;19.57;;;21.40;99.90;;;;;;4960646;28;20551;-81
2023/06/20 02:10:49;;;;;;;19.30;18.20;;;21.40;1.00;;;;;;4955905;28;20908;-81
2023/06/20 02:13:17;;;;;;;19.40;18.60;;;21.40;23.50;;;;;;4954009;28;20512;-82
2023/06/20 02:15:47;;;;;;;19.70;18.90;;;21.30;99.90;;;;;;4953560;28;20913;-81
2023/06/20 02:18:15;;;;;;;19.33;18.63;;;21.40;1.00;;;;;;4956461;28;20459;-82
2023/06/20 02:20:43;;;;;;;19.60;18.60;;;21.40;1.00;;;;;;4955136;28;20500;-82
2023/06/20 02:23:12;;;;;;;19.63;18.70;;;21.40;99.90;;;;;;4955208;28;20486;-82
2023/06/20 02:25:45;;;;;;;19.17;18.37;;;21.40;99.90;;;;;;4949622;28;20458;-82
2023/06/20 02:28:15;;;;;;;19.03;18.23;;;21.40;99.90;;;;;;4953681;28;20471;-83
2023/06/20 02:30:45;;;;;;;19.40;18.60;;;21.40;99.90;;;;;;4954343;28;20477;-83
2023/06/20 02:33:15;;;;;;;19.03;18.17;;;21.40;1.00;;;;;;4954079;28;20494;-82
2023/06/20 02:35:45;;;;;;;20.00;19.00;;;21.30;1.00;;;;;;4954848;28;21289;-79
2023/06/20 02:38:13;;;;;;;19.43;18.73;;;21.30;99.90;;;;;;4955490;28;20455;-82
2023/06/20 02:40:43;;;;;;;19.73;18.83;;;21.30;1.00;;;;;;4952854;28;20808;-80
2023/06/20 02:43:11;;;;;;;20.30;19.30;;;21.20;52.10;;;;;;4950920;28;20484;-83
2023/06/20 02:45:39;;;;;;;19.57;18.73;;;21.10;99.90;;;;;;4952009;28;20974;-84
2023/06/20 02:48:27;;;;;;;19.87;18.60;;;21.00;1.00;;;;;;4952293;28;20466;-83
2023/06/20 02:51:03;;;;;;;20.27;19.20;;;21.10;13.70;;;;;;4959433;28;21039;-83
2023/06/20 02:53:42;;;;;;;20.50;19.60;;;21.20;48.10;;;;;;4957024;28;20984;-83
2023/06/20 02:56:14;;;;;;;20.60;19.70;;;21.20;48.10;;;;;;4952425;28;20487;-83
2023/06/20 02:58:47;;;;;;;20.00;19.10;;;21.10;99.90;;;;;;4954592;28;20460;-83
2023/06/20 03:01:23;;;;;;;19.43;18.63;;;21.10;99.90;;;;;;4955206;28;20463;-81
2023/06/20 03:03:54;;;;;;;20.30;19.47;;;21.10;52.00;;;;;;4953721;28;20472;-83
2023/06/20 03:06:26;;;;;;;20.67;19.87;;;21.20;99.90;;;;;;4952338;28;20450;-83
2023/06/20 03:08:57;;;;;;;20.07;19.10;;;21.30;99.90;;;;;;4953643;28;21151;-82
2023/06/20 03:11:27;;;;;;;20.90;19.90;;;21.20;99.90;;;;;;4957333;28;20456;-83
2023/06/20 03:13:55;;;;;;;20.13;19.23;;;21.10;1.00;;;;;;4955757;28;20479;-82
2023/06/20 03:16:26;;;;;;;19.83;19.00;;;21.10;99.90;;;;;;4951278;28;20480;-83
2023/06/20 03:18:54;;;;;;;20.33;19.33;;;21.00;99.90;;;;;;4957016;28;20506;-82
2023/06/20 03:21:25;;;;;;;21.10;20.00;;;21.10;99.90;;;;;;4959041;28;20973;-83
2023/06/20 03:23:57;;;;;;;20.83;19.83;;;21.00;1.00;;;;;;4948810;28;20470;-83
2023/06/20 03:26:26;;;;;;;20.23;19.33;;;21.00;99.90;;;;;;4956366;28;20470;-81
2023/06/20 03:28:54;;;;;;;20.53;19.50;;;21.10;1.00;;;;;;4952362;28;20462;-82
2023/06/20 03:31:22;;;;;;;20.47;19.53;;;21.00;99.90;;;;;;4954626;28;20463;-82
2023/06/20 03:33:51;;;;;;;20.60;19.80;;;21.00;38.70;;;;;;4953670;28;20562;-83
2023/06/20 03:36:19;;;;;;;20.40;19.50;;;20.90;99.90;;;;;;4955084;28;20502;-83
2023/06/20 03:38:47;;;;;;;20.73;19.73;;;20.90;99.90;;;;;;4953100;28;20452;-83
2023/06/20 03:41:15;;;;;;;20.93;19.93;;;20.90;99.90;;;;;;4956349;28;20462;-82
2023/06/20 03:43:44;;;;;;;20.20;19.40;;;20.90;99.90;;;;;;4955607;28;21267;-82
2023/06/20 03:46:13;;;;;;;20.87;19.67;;;20.90;1.00;;;;;;4949328;28;20464;-83
2023/06/20 03:48:41;;;;;;;20.33;19.53;;;20.90;99.90;;;;;;4954009;28;21419;-83
2023/06/20 03:51:09;;;;;;;20.57;19.67;;;20.90;99.90;;;;;;4951196;28;20481;-82
2023/06/20 03:53:37;;;;;;;20.30;19.40;;;20.90;99.90;;;;;;4956404;28;20466;-81
2023/06/20 03:56:05;;;;;;;19.60;18.80;;;20.90;1.00;;;;;;4954743;28;20462;-82
2023/06/20 03:58:33;;;;;;;19.40;18.60;;;20.90;99.90;;;;;;4946176;28;20484;-83
2023/06/20 04:01:04;;;;;;;21.40;20.30;;;21.00;1.00;;;;;;4950168;28;21083;-81
2023/06/20 04:03:32;;;;;;;20.07;19.17;;;20.90;99.90;;;;;;4953366;28;21059;-82
2023/06/20 04:06:01;;;;;;;20.87;19.90;;;20.90;99.90;;;;;;4953607;28;20463;-83
2023/06/20 04:08:30;;;;;;;20.97;19.97;;;20.90;99.90;;;;;;4956278;28;20466;-82
2023/06/20 04:10:58;;;;;;;19.80;18.90;;;20.90;1.00;;;;;;4953908;28;20463;-82
2023/06/20 04:13:28;;;;;;;20.03;19.23;;;20.90;1.00;;;;;;4952578;28;20532;-82
2023/06/20 04:15:56;;;;;;;20.90;20.00;;;21.00;1.00;;;;;;4954455;28;20459;-82
2023/06/20 04:18:26;;;;;;;21.00;19.83;;;20.90;1.00;;;;;;4958948;28;20487;-83
2023/06/20 04:20:58;;;;;;;20.40;19.50;;;20.90;1.00;;;;;;4959985;28;20459;-82
2023/06/20 04:23:26;;;;;;;20.00;19.10;;;20.80;99.90;;;;;;4962827;28;20491;-82
2023/06/20 04:25:54;;;;;;;20.97;19.93;;;20.70;99.90;;;;;;4957268;28;20483;-84
2023/06/20 04:28:22;;;;;;;21.00;20.03;;;20.70;99.90;;;;;;4958538;28;20486;-82
2023/06/20 04:30:52;;;;;;;20.00;19.10;;;20.70;99.90;;;;;;4950742;28;20553;-82
2023/06/20 04:33:22;;;;;;;19.60;18.73;;;20.70;1.00;;;;;;4959425;28;20518;-80
2023/06/20 04:35:52;;;;;;;19.70;18.90;;;20.70;99.90;;;;;;4954740;28;20530;-78
2023/06/20 04:38:20;;;;;;;20.43;19.53;;;20.90;99.90;;;;;;4957549;28;20475;-83
2023/06/20 04:40:48;;;;;;;20.03;19.20;;;21.00;99.90;;;;;;4957913;28;20463;-79
2023/06/20 04:43:16;;;;;;;20.10;19.20;;;21.00;99.90;;;;;;4954253;28;20809;-78
2023/06/20 04:45:44;;;;;;;20.73;19.63;;;21.00;1.00;;;;;;4952764;28;20989;-80
2023/06/20 04:48:12;;;;;;;20.00;19.10;;;21.10;99.90;;;;;;4952923;28;20474;-80
2023/06/20 04:50:41;;;;;;;19.93;19.03;;;21.10;29.30;;;;;;4951070;28;20819;-79
2023/06/20 04:53:10;;;;;;;20.83;19.93;;;21.10;1.00;;;;;;4955424;28;20719;-79
2023/06/20 04:55:39;;;;;;;20.43;19.43;;;21.10;1.00;;;;;;4957404;28;20871;-81
2023/06/20 04:58:07;;;;;;;19.70;18.90;;;21.10;99.90;;;;;;4954810;28;21015;-80
2023/06/20 05:00:37;;;;;;;19.87;19.07;;;21.10;63.80;;;;;;4956688;28;20994;-80
2023/06/20 05:03:05;;;;;;;20.80;19.70;;;21.10;1.00;;;;;;4944234;28;20491;-80
2023/06/20 05:05:53;;;;;;;19.57;18.87;;;21.10;1.00;;;;;;4958951;28;20502;-81
2023/06/20 05:08:28;;;;;;;20.17;19.17;;;21.00;99.90;;;;;;4959532;28;20467;-81
2023/06/20 05:11:39;;;;;;;20.50;19.60;;;21.00;1.00;;;;;;4956692;28;20455;-82
2023/06/20 05:14:15;;;;;;;19.37;18.67;;;21.00;99.90;;;;;;4939325;28;20478;-80
2023/06/20 05:21:04;;;;;;;20.30;19.47;;;21.10;99.90;;;;;;4909323;29;20477;-81
2023/06/20 05:23:34;;;;;;;20.80;19.97;;;21.10;1.00;;;;;;4909241;29;20499;-81
2023/06/20 05:26:02;;;;;;;20.00;19.20;;;21.20;1.00;;;;;;4910355;29;20457;-80
2023/06/20 05:32:22;;;;;;;21.00;19.97;;;21.30;88.70;;;;;;4832771;29;20508;-81
2023/06/20 05:34:50;;;;;;;20.40;19.40;;;21.30;1.00;;;;;;4837949;29;21165;-80
2023/06/20 05:37:18;;;;;;;21.03;20.03;;;21.30;18.10;;;;;;4853523;29;20524;-82
2023/06/20 05:39:48;;;;;;;21.37;20.37;;;21.30;99.90;;;;;;4919193;29;20464;-80
2023/06/20 05:42:16;;;;;;;20.37;19.57;;;21.30;1.00;;;;;;4922211;29;20477;-82
2023/06/20 05:44:44;;;;;;;21.60;20.60;;;21.30;99.90;;;;;;4918682;29;20523;-83
2023/06/20 05:47:17;;;;;;;21.00;19.90;;;21.40;1.00;;;;;;4919765;29;20469;-81
2023/06/20 05:49:46;;;;;;;22.20;21.10;;;21.40;1.00;;;;;;4918797;29;20971;-82
2023/06/20 05:52:14;;;;;;;20.80;19.90;;;21.40;99.90;;;;;;4918694;29;20572;-81
2023/06/20 05:54:44;;;;;;;21.77;20.80;;;21.40;99.90;;;;;;4917964;29;20595;-80
2023/06/20 05:57:13;;;;;;;21.10;20.10;;;21.50;1.00;;;;;;4913804;29;20472;-82
2023/06/20 05:59:41;;;;;;;22.07;21.07;;;21.50;99.90;;;;;;4912735;29;20495;-83
2023/06/20 06:04:58;;;;;;;22.30;21.10;;;21.50;1.00;;;;;;4919960;29;21021;-83
2023/06/20 06:07:27;;;;;;;21.47;20.57;;;21.50;1.00;;;;;;4917363;29;20466;-81
2023/06/20 06:09:55;;;;;;;21.23;20.23;;;21.50;1.00;;;;;;4947572;28;20472;-81
2023/06/20 06:12:24;;;;;;;21.67;20.73;;;21.50;99.90;;;;;;4950901;28;20500;-81
2023/06/20 06:14:53;;;;;;;21.67;20.67;;;21.60;99.90;;;;;;4955396;28;20753;-81
2023/06/20 06:17:21;;;;;;;21.93;20.90;;;21.60;99.90;;;;;;4954457;28;20466;-79
2023/06/20 06:19:49;;;;;;;21.53;20.50;;;21.70;99.90;;;;;;4956581;28;20485;-81
2023/06/20 06:22:20;;;;;;;22.63;21.53;;;21.70;1.00;;;;;;4961505;28;20602;-81
2023/06/20 06:24:48;;;;;;;21.97;21.00;;;21.80;1.00;;;;;;4956823;28;20463;-81
2023/06/20 06:27:17;;;;;;;24.47;23.27;;;21.80;1.00;;;;;;4953774;28;20467;-82
2023/06/20 06:29:46;;;;;;;24.10;23.10;;;21.80;1.00;;;;;;4956586;28;20466;-82
2023/06/20 06:32:16;;;;;;;23.20;22.20;;;21.90;1.00;;;;;;4958858;28;21183;-82
2023/06/20 06:34:44;;;;;;;23.83;22.63;;;21.90;99.90;;;;;;4955740;28;20464;-81
2023/06/20 06:37:12;;;;;;;23.53;22.33;;;22.00;11.50;;;;;;4956700;28;20970;-81
2023/06/20 06:39:41;;;;;;;23.60;22.33;;;22.00;99.90;;;;;;4959239;28;20488;-82
2023/06/20 06:42:09;;;;;;;24.53;23.33;;;22.00;99.90;;;;;;4960442;28;20476;-82
2023/06/20 06:44:37;;;;;;;23.30;22.30;;;22.10;99.90;;;;;;4957936;28;20456;-80
2023/06/20 06:47:07;;;;;;;23.97;22.87;;;22.10;99.90;;;;;;4959176;28;20460;-81
2023/06/20 06:49:35;;;;;;;24.40;23.30;;;22.10;99.90;;;;;;4959203;28;20540;-82
2023/06/20 06:52:04;;;;;;;24.13;22.83;;;22.20;1.00;;;;;;4956142;28;20491;-82
2023/06/20 06:54:32;;;;;;;23.97;22.90;;;22.20;99.90;;;;;;4958080;28;20617;-82
2023/06/20 06:57:00;;;;;;;23.93;22.93;;;22.30;99.90;;;;;;4956483;28;20915;-81
2023/06/20 06:59:28;;;;;;;24.40;23.27;;;22.40;99.90;;;;;;4960117;28;20491;-82
2023/06/20 07:01:56;;;;;;;24.27;22.83;;;22.50;99.90;;;;;;4955895;28;20470;-80
2023/06/20 07:04:26;;;;;;;24.50;23.20;;;22.50;58.50;;;;;;4957864;28;20462;-81
2023/06/20 07:06:54;;;;;;;24.37;23.07;;;22.50;1.00;;;;;;4958928;28;20458;-81
2023/06/20 07:09:22;;;;;;;24.70;23.50;;;22.50;1.00;;;;;;4956176;28;20985;-80
2023/06/20 07:11:50;;;;;;;24.00;22.83;;;22.60;1.00;;;;;;4945310;28;20507;-80
2023/06/20 07:14:19;;;;;;;23.67;22.67;;;22.60;1.00;;;;;;4954804;28;20463;-82
2023/06/20 07:16:50;;;;;;;24.50;23.30;;;22.70;1.00;;;;;;4959177;28;20486;-82
2023/06/20 07:19:34;;;;;;;23.67;22.47;;;22.70;1.00;;;;;;4959378;28;20827;-79
2023/06/20 07:22:03;;;;;;;24.50;23.37;;;22.80;1.00;;;;;;4961148;28;20480;-81
2023/06/20 07:24:32;;;;;;;24.70;23.30;;;22.90;99.90;;;;;;4961503;28;20483;-80
2023/06/20 07:27:00;;;;;;;24.77;23.47;;;23.00;99.90;;;;;;4962622;28;20547;-82
2023/06/20 07:29:28;;;;;;;24.47;23.10;;;23.00;99.90;;;;;;4959042;28;20444;-82
2023/06/20 07:31:56;;;;;;;24.33;23.13;;;23.10;99.90;;;;;;4960739;28;20483;-81
2023/06/20 07:34:27;;;;;;;24.60;23.20;;;23.10;99.90;;;;;;4957865;28;20459;-80
2023/06/20 07:36:57;;;;;;;24.90;23.50;;;23.20;1.00;;;;;;4965479;28;20459;-81
2023/06/20 07:39:25;;;;;;;24.90;23.70;;;23.20;99.90;;;;;;4963167;28;20515;-82
2023/06/20 07:41:54;;;;;;;24.50;23.37;;;23.20;99.90;;;;;;4960423;28;20517;-79
2023/06/20 07:44:22;;;;;;;24.63;23.53;;;23.20;99.90;;;;;;4956523;28;20460;-82
2023/06/20 07:46:51;;;;;;;24.50;23.30;;;23.20;99.90;;;;;;4956738;28;20456;-80
2023/06/20 07:49:19;;;;;;;24.80;23.50;;;23.30;99.90;;;;;;4959148;28;20526;-82
2023/06/20 07:51:47;;;;;;;25.17;24.03;;;23.30;99.90;;;;;;4963533;28;20505;-80
2023/06/20 07:54:17;;;;;;;24.70;23.53;;;23.30;99.90;;;;;;4965628;28;20448;-81
2023/06/20 07:56:45;;;;;;;24.53;23.37;;;23.40;99.90;;;;;;4963898;28;20451;-81
2023/06/20 07:59:14;;;;;;;24.87;23.40;;;23.30;99.90;;;;;;4964104;28;21316;-81
2023/06/20 08:01:42;;;;;;;25.17;23.53;;;23.40;99.90;;;;;;4966518;28;20455;-81
2023/06/20 08:04:10;;;;;;;25.20;24.00;;;23.50;99.90;;;;;;4962283;28;21148;-82
2023/06/20 08:06:38;;;;;;;23.53;22.43;;;23.50;99.90;;;;;;4964430;28;20466;-81
2023/06/20 08:09:06;;;;;;;25.90;24.60;;;23.50;99.90;;;;;;4963976;28;20550;-82
2023/06/20 08:11:37;;;;;;;24.97;23.77;;;23.60;99.90;;;;;;4960380;28;20458;-82
2023/06/20 08:14:06;;;;;;;25.60;24.40;;;23.60;39.50;;;;;;4962825;28;21803;-82
2023/06/20 08:16:34;;;;;;;25.60;24.00;;;23.50;38.50;;;;;;4961328;28;20555;-81
2023/06/20 08:19:02;;;;;;;25.60;24.40;;;23.60;20.70;;;;;;4961317;28;20526;-81
2023/06/20 08:21:31;;;;;;;25.40;24.17;;;23.60;9.60;;;;;;4963901;28;20996;-81
2023/06/20 08:23:59;;;;;;;25.33;23.87;;;23.60;17.80;;;;;;4961585;28;20538;-82
2023/06/20 08:26:27;;;;;;;25.20;23.80;;;23.70;1.00;;;;;;4965048;28;20473;-82
2023/06/20 08:28:57;;;;;;;25.67;24.37;;;23.70;1.00;;;;;;4958500;28;21557;-81
2023/06/20 08:31:36;;;;;;;25.90;24.40;;;23.70;1.00;;;;;;4959886;28;20491;-82
2023/06/20 08:34:05;;;;;;;26.50;25.00;;;23.80;28.10;;;;;;4963313;28;20518;-81
2023/06/20 08:36:33;;;;;;;24.63;23.50;;;23.80;1.00;;;;;;4961482;28;20525;-81
2023/06/20 08:39:02;;;;;;;25.10;23.70;;;23.80;1.00;;;;;;4962833;28;20883;-82
2023/06/20 08:41:31;;;;;;;25.30;24.00;;;23.90;1.00;;;;;;4963245;28;21019;-81
2023/06/20 08:44:01;;;;;;;25.80;24.40;;;23.90;1.00;;;;;;4960682;28;20485;-81
2023/06/20 08:46:31;;;;;;;25.80;24.50;;;24.00;1.00;;;;;;4965591;28;20439;-80
2023/06/20 08:48:59;;;;;;;25.30;23.83;;;24.00;1.00;;;;;;4963149;28;20455;-82
2023/06/20 08:51:29;;;;;;;25.67;24.27;;;24.10;1.00;;;;;;4964395;28;20443;-82
2023/06/20 08:53:59;;;;;;;24.90;23.60;;;24.10;1.00;;;;;;4966026;28;21189;-83
2023/06/20 08:56:27;;;;;;;24.87;23.57;;;24.10;1.00;;;;;;4968188;28;20460;-80
2023/06/20 08:58:56;;;;;;;24.67;23.47;;;24.10;1.00;;;;;;4963235;28;20864;-82
2023/06/20 09:01:26;;;;;;;24.70;23.50;;;24.10;1.00;;;;;;4963166;28;20448;-82
2023/06/20 09:03:56;;;;;;;26.17;24.83;;;24.20;1.00;;;;;;4962770;28;20543;-81
2023/06/20 09:06:36;;;;;;;25.00;23.33;;;24.30;1.00;;;;;;4961405;28;20885;-83
2023/06/20 09:09:05;;;;;;;24.40;23.20;;;24.20;1.00;;;;;;4965952;28;20470;-81
2023/06/20 09:11:36;;;;;;;24.43;23.33;;;24.30;1.00;;;;;;4960509;28;20455;-82
2023/06/20 09:14:05;;;;;;;25.53;24.23;;;24.40;1.00;;;;;;4962732;28;20482;-82
2023/06/20 09:16:34;;;;;;;24.90;23.70;;;24.40;1.00;;;;;;4962322;28;20440;-82
2023/06/20 09:19:03;;;;;;;25.13;24.03;;;24.40;1.00;;;;;;4960817;28;20536;-82
2023/06/20 09:21:36;;;;;;;25.53;24.13;;;24.50;1.00;;;;;;4966303;28;20593;-81
2023/06/20 09:24:06;;;;;;;25.33;23.90;;;24.50;1.00;;;;;;4962613;28;20452;-81
2023/06/20 09:26:35;;;;;;;23.80;22.60;;;24.50;1.00;;;;;;4964936;28;20483;-81
2023/06/20 09:29:12;;;;;;;24.53;23.23;;;24.50;1.00;;;;;;4964521;28;20451;-80
2023/06/20 09:31:44;;;;;;;23.33;22.23;;;24.60;1.00;;;;;;4966582;28;20529;-81
2023/06/20 09:34:13;;;;;;;24.07;22.73;;;24.60;1.00;;;;;;4959371;28;20460;-81
2023/06/20 09:36:43;;;;;;;22.93;21.83;;;24.60;1.00;;;;;;4960771;28;20482;-82
2023/06/20 09:39:15;;;;;;;24.43;23.23;;;24.70;1.00;;;;;;4966405;28;20459;-81
2023/06/20 09:41:46;;;;;;;23.53;22.20;;;24.70;99.90;;;;;;4962124;28;20836;-81
2023/06/20 09:44:15;;;;;;;23.37;22.17;;;24.70;99.90;;;;;;4959385;28;20510;-82
2023/06/20 09:46:45;;;;;;;23.47;22.20;;;24.80;99.90;;;;;;4960281;28;20495;-82
2023/06/20 09:49:14;;;;;;;24.77;23.57;;;24.80;99.90;;;;;;4963451;28;20465;-79
2023/06/20 09:51:47;;;;;;;22.80;21.80;;;24.90;99.90;;;;;;4959381;28;20459;-82
2023/06/20 09:54:27;;;;;;;23.40;22.10;;;24.90;99.90;;;;;;4961140;28;21025;-82
2023/06/20 09:57:02;;;;;;;21.37;20.37;;;24.90;99.90;;;;;;4958427;28;20647;-81
2023/06/20 09:59:36;;;;;;;22.23;21.23;;;25.00;99.90;;;;;;4957873;28;20451;-81
2023/06/20 10:02:09;;;;;;;23.43;22.20;;;25.10;99.90;;;;;;4957606;28;20590;-80
2023/06/20 10:04:42;;;;;;;22.80;21.60;;;25.20;99.90;;;;;;4960486;28;20455;-81
2023/06/20 10:07:14;;;;;;;23.70;22.40;;;25.20;99.90;;;;;;4958219;28;20517;-81
2023/06/20 10:09:42;;;;;;;22.80;21.50;;;25.30;99.90;;;;;;4949121;28;20450;-81
2023/06/20 10:12:12;;;;;;;22.50;21.50;;;25.30;99.90;;;;;;4953802;28;20905;-80
2023/06/20 10:14:41;;;;;;;22.30;21.30;;;25.30;99.90;;;;;;4954371;28;20546;-81
2023/06/20 10:17:12;;;;;;;22.03;21.03;;;25.40;99.90;;;;;;4960436;28;20464;-79
2023/06/20 10:19:48;;;;;;;22.30;21.23;;;25.40;99.90;;;;;;4960255;28;20452;-82
2023/06/20 10:22:33;;;;;;;22.60;21.50;;;25.50;99.90;;;;;;4958015;28;20478;-81
2023/06/20 10:25:11;;;;;;;21.87;20.83;;;25.50;99.90;;;;;;4948060;28;20523;-80
2023/06/20 10:27:43;;;;;;;22.67;21.60;;;25.50;99.90;;;;;;4951600;28;20452;-81
2023/06/20 10:30:13;;;;;;;23.60;22.40;;;25.50;99.90;;;;;;4955894;28;20550;-80
2023/06/20 10:33:08;;;;;;;22.37;21.27;;;25.60;99.90;;;;;;4957094;28;20471;-79
2023/06/20 10:35:48;;;;;;;22.23;21.23;;;25.60;99.90;;;;;;4956700;28;20464;-80
2023/06/20 10:38:17;;;;;;;22.37;21.33;;;25.70;99.90;;;;;;4958125;28;20459;-79
2023/06/20 10:40:45;;;;;;;23.07;21.97;;;25.70;99.90;;;;;;4961027;28;20489;-81
2023/06/20 10:43:16;;;;;;;22.17;21.20;;;25.80;99.90;;;;;;4961358;28;20472;-81
2023/06/20 10:46:02;;;;;;;22.50;21.50;;;25.80;99.90;;;;;;4959439;28;20459;-81
2023/06/20 10:48:32;;;;;;;22.70;21.77;;;25.90;99.90;;;;;;4960544;28;20483;-81
2023/06/20 10:51:01;;;;;;;23.67;22.37;;;25.90;99.90;;;;;;4961125;28;20973;-81
2023/06/20 10:53:30;;;;;;;22.87;21.60;;;26.00;99.90;;;;;;4958603;28;20555;-81
2023/06/20 10:55:58;;;;;;;22.40;21.30;;;26.10;99.90;;;;;;4957470;28;20444;-80
2023/06/20 10:58:26;;;;;;;21.77;20.80;;;26.00;99.90;;;;;;4958469;28;21068;-79
2023/06/20 11:01:00;;;;;;;21.70;20.60;;;26.00;99.90;;;;;;4959851;28;20832;-81
2023/06/20 11:03:29;;;;;;;23.10;21.83;;;26.10;99.90;;;;;;4959583;28;20475;-81
2023/06/20 11:05:59;;;;;;;22.33;21.33;;;26.10;99.90;;;;;;4958330;28;20460;-80
2023/06/20 11:08:28;;;;;;;22.00;20.80;;;26.20;99.90;;;;;;4957705;28;20455;-81
2023/06/20 11:10:57;;;;;;;22.07;21.13;;;26.30;99.90;;;;;;4960841;28;20990;-79
2023/06/20 11:13:25;;;;;;;23.80;22.30;;;26.30;99.90;;;;;;4956211;28;20487;-80
2023/06/20 11:15:54;;;;;;;22.83;21.73;;;26.40;99.90;;;;;;4962026;28;20961;-80
2023/06/20 11:18:22;;;;;;;22.67;21.57;;;26.30;99.90;;;;;;4958644;28;20444;-81
2023/06/20 11:20:53;;;;;;;22.23;21.13;;;26.40;99.90;;;;;;4959064;28;20483;-81
2023/06/20 11:23:23;;;;;;;21.80;20.90;;;26.40;99.90;;;;;;4963654;28;20475;-82
2023/06/20 11:25:52;;;;;;;23.50;22.30;;;26.30;99.90;;;;;;4959055;28;20984;-81
2023/06/20 11:28:25;;;;;;;23.57;22.30;;;26.30;99.90;;;;;;4960529;28;20464;-79
2023/06/20 11:31:09;;;;;;;22.60;21.50;;;26.40;99.90;;;;;;4959837;28;20451;-82
2023/06/20 11:33:37;;;;;;;23.17;22.17;;;26.50;99.90;;;;;;4959746;28;20474;-78
2023/06/20 11:36:06;;;;;;;21.87;20.87;;;26.60;99.90;;;;;;4957241;28;21134;-79
2023/06/20 11:39:15;;;;;;;23.20;21.70;;;26.70;99.90;;;;;;4956791;28;20466;-80
2023/06/20 11:42:14;;;;;;;22.30;21.27;;;26.70;99.90;;;;;;4907855;28;21823;-81
2023/06/20 11:48:41;;;;;;;22.10;21.10;;;26.60;99.90;;;;;;4923575;29;20594;-81
2023/06/20 11:51:58;;;;;;;23.20;21.87;;;26.70;99.90;;;;;;4887658;29;20466;-79
2023/06/20 11:55:27;;;;;;;23.87;22.70;;;26.70;99.90;;;;;;4924445;29;20983;-80
2023/06/20 11:58:05;;;;;;;24.50;23.00;;;26.70;99.90;;;;;;4919208;29;20553;-82
2023/06/20 12:00:34;;;;;;;23.87;22.77;;;26.80;99.90;;;;;;4923453;29;20460;-81
2023/06/20 12:03:02;;;;;;;23.30;22.00;;;26.80;99.90;;;;;;4954049;23;20590;-82
2023/06/20 12:05:32;;;;;;;23.57;22.57;;;26.80;99.90;;;;;;4950100;28;20460;-81
2023/06/20 12:08:01;;;;;;;22.27;21.37;;;27.00;99.90;;;;;;4946740;28;20472;-82
2023/06/20 12:10:34;;;;;;;24.47;23.17;;;27.00;99.90;;;;;;4946529;28;20450;-82
2023/06/20 12:13:06;;;;;;;23.17;21.77;;;27.00;99.90;;;;;;4987076;23;20504;-82
2023/06/20 12:19:10;;;;;;;23.03;21.73;;;27.00;99.90;;;;;;4927871;28;20524;-82
2023/06/20 12:22:25;;;;;;;23.17;22.10;;;27.00;99.90;;;;;;4983529;28;20487;-82
2023/06/20 12:25:41;;;;;;;23.57;22.00;;;27.10;99.90;;;;;;4959488;28;20726;-80
2023/06/20 12:28:41;;;;;;;23.13;21.90;;;27.10;99.90;;;;;;4971615;28;20550;-80
2023/06/20 12:31:56;;;;;;;23.73;22.33;;;27.10;99.90;;;;;;4954136;28;20557;-81
2023/06/20 12:34:24;;;;;;;23.73;22.53;;;27.10;99.90;;;;;;4970969;28;20486;-82
2023/06/20 12:36:53;;;;;;;24.00;22.70;;;27.10;99.90;;;;;;4970623;28;20447;-81
2023/06/20 12:39:21;;;;;;;23.57;22.37;;;27.20;99.90;;;;;;4975146;28;20461;-79
2023/06/20 12:42:18;;;;;;;23.30;21.90;;;27.10;99.90;;;;;;4973395;28;20541;-80
2023/06/20 12:44:54;;;;;;;23.20;22.00;;;27.10;99.90;;;;;;4973558;28;20822;-79
2023/06/20 12:47:22;;;;;;;23.90;22.30;;;27.10;99.90;;;;;;4974363;28;21066;-79
2023/06/20 12:49:51;;;;;;;23.73;22.10;;;27.20;99.90;;;;;;4972407;28;20451;-80
2023/06/20 12:52:19;;;;;;;23.07;21.80;;;27.30;99.90;;;;;;4973736;28;20476;-81
2023/06/20 12:54:50;;;;;;;23.00;21.80;;;27.30;99.90;;;;;;4972027;28;20459;-82
2023/06/20 12:57:19;;;;;;;25.00;23.40;;;27.30;99.90;;;;;;4971546;28;20459;-81
2023/06/20 12:59:47;;;;;;;23.53;22.20;;;27.30;99.90;;;;;;4973562;28;20905;-80
2023/06/20 13:02:17;;;;;;;22.97;21.67;;;27.40;99.90;;;;;;4968987;28;20490;-82
2023/06/20 13:04:45;;;;;;;23.77;22.50;;;27.40;99.90;;;;;;4969384;28;20546;-82
2023/06/20 13:07:13;;;;;;;22.60;21.50;;;27.50;99.90;;;;;;4972309;28;20458;-82
2023/06/20 13:09:42;;;;;;;23.43;22.30;;;27.50;99.90;;;;;;4962360;28;20462;-80